Chico, Washington
Current Conditions -  °F | °C
As of 5:35 AM on Friday 19 Dec 2014 (Local Time) from KPWT Reporting Station
Overcast Overcast  
Wind Chill: 40°   Ceiling: 1600
Heat Index: 45°   Visibility: 10mi
Dew Point: 45°   Wind: 8mph
Humidity: 100%   Direction: 210°SSW
Pressure: 29.87"   Gusts: NA
Location:  47.5691°N, 122.818°W
Report Text: KPWT 191335Z AUTO 21007KT 10SM OVC016 07/07 A2987 RMK AO1 P0006
Loading
Personal Weather Stations






























Interactive Weather Map New forecast layout! Learn more

10-Day Weather Forecast

Advertisements
Track Severe Weather on mobile